createdAt,value
2023-01-18T00:03:40.116Z,0.8
2023-01-18T00:09:00.103Z,0.9
2023-01-18T00:14:55.867Z,0.9
2023-01-18T00:20:26.623Z,1
2023-01-18T00:25:48.886Z,1
2023-01-18T00:31:24.669Z,1
2023-01-18T00:36:59.027Z,1.2
2023-01-18T00:42:17.259Z,1.2
2023-01-18T00:47:49.061Z,1.3
2023-01-18T00:53:23.647Z,1.3
2023-01-18T00:59:03.201Z,1.1
2023-01-18T01:04:32.038Z,1
2023-01-18T01:10:19.270Z,0.9
2023-01-18T01:15:41.206Z,0.9
2023-01-18T01:21:18.135Z,0.9
2023-01-18T01:26:51.384Z,0.9
2023-01-18T01:32:34.956Z,0.9
2023-01-18T01:38:06.179Z,0.8
2023-01-18T01:43:45.194Z,0.8
2023-01-18T01:49:04.223Z,0.8
2023-01-18T01:54:55.843Z,0.7
2023-01-18T02:00:32.024Z,0.8
2023-01-18T02:06:02.893Z,0.8
2023-01-18T02:11:36.518Z,0.8
2023-01-18T02:16:49.360Z,1
2023-01-18T02:22:31.907Z,1.1
2023-01-18T02:28:06.269Z,1.1
2023-01-18T02:33:43.687Z,1.1
2023-01-18T02:39:10.659Z,1.1
2023-01-18T02:44:41.995Z,1.1
2023-01-18T02:50:09.008Z,1.1
2023-01-18T02:55:57.920Z,1
2023-01-18T03:01:40.157Z,1
2023-01-18T03:07:01.294Z,1
2023-01-18T03:12:41.574Z,1
2023-01-18T03:18:15.625Z,1
2023-01-18T03:23:30.907Z,1.1
2023-01-18T03:29:27.550Z,1.1
2023-01-18T03:34:51.369Z,1.2
2023-01-18T03:40:15.158Z,1.2
2023-01-18T03:45:47.869Z,1.1
2023-01-18T03:51:25.910Z,1.2
2023-01-18T03:57:07.612Z,1.2
2023-01-18T04:02:26.259Z,1.2
2023-01-18T04:07:56.045Z,1.3
2023-01-18T04:13:43.781Z,1.3
2023-01-18T04:19:10.697Z,1.4
2023-01-18T04:24:54.000Z,1.3
2023-01-18T04:30:20.559Z,1.3
2023-01-18T04:36:01.637Z,1.4
2023-01-18T04:41:30.941Z,1.4
2023-01-18T04:46:56.378Z,1.4
2023-01-18T04:52:37.577Z,1.4
2023-01-18T04:58:02.779Z,1.4
2023-01-18T05:03:48.579Z,1.4
2023-01-18T05:09:05.351Z,1.3
2023-01-18T05:14:45.757Z,1.4
2023-01-18T05:20:36.637Z,1.4
2023-01-18T05:26:02.191Z,1.4
2023-01-18T05:31:17.017Z,1.4
2023-01-18T05:36:56.223Z,1.3
2023-01-18T05:42:41.640Z,1.4
2023-01-18T05:48:08.237Z,1.4
2023-01-18T05:53:43.642Z,1.5
2023-01-18T05:59:13.230Z,1.5
2023-01-18T06:04:38.291Z,1.4
2023-01-18T06:10:10.464Z,1.4
2023-01-18T06:16:06.811Z,1.4
2023-01-18T06:21:36.599Z,1.4
2023-01-18T06:27:12.567Z,1.4
2023-01-18T06:32:27.960Z,1.4
2023-01-18T06:38:12.192Z,1.4
2023-01-18T06:43:46.408Z,1.4
2023-01-18T06:49:11.437Z,1.4
2023-01-18T06:54:55.192Z,1.4
2023-01-18T07:00:24.078Z,1.4
2023-01-18T07:05:49.114Z,1.4
2023-01-18T07:11:19.545Z,1.3
2023-01-18T07:17:11.542Z,1.3
2023-01-18T07:22:33.360Z,1.3
2023-01-18T07:28:01.326Z,1.4
2023-01-18T07:33:43.103Z,1.3
2023-01-18T07:39:03.647Z,1.2
2023-01-18T07:44:59.019Z,1.3
2023-01-18T07:50:28.354Z,1.2
2023-01-18T07:55:49.263Z,1.2
2023-01-18T08:01:27.334Z,1.3
2023-01-18T08:06:58.225Z,1.2
2023-01-18T08:12:42.269Z,1.3
2023-01-18T08:18:05.533Z,1.2
2023-01-18T08:23:31.604Z,1.3
2023-01-18T08:29:28.916Z,1.2
2023-01-18T08:34:41.532Z,1.2
2023-01-18T08:40:37.402Z,1.3
2023-01-18T08:45:44.149Z,1.4
2023-01-18T08:51:31.905Z,1.5
2023-01-18T08:57:14.191Z,1.6
2023-01-18T09:02:26.881Z,1.7
2023-01-18T09:08:10.127Z,1.8
2023-01-18T09:13:59.668Z,1.9
2023-01-18T09:19:21.828Z,1.9
2023-01-18T09:24:49.861Z,1.9
2023-01-18T09:30:36.648Z,1.8
2023-01-18T09:36:10.209Z,1.7
2023-01-18T09:41:20.837Z,1.9
2023-01-18T09:47:19.088Z,1.8
2023-01-18T09:52:51.263Z,1.8
2023-01-18T09:58:17.437Z,1.8
2023-01-18T10:03:46.211Z,2
2023-01-18T10:09:21.366Z,2
2023-01-18T10:14:47.529Z,2
2023-01-18T10:20:15.755Z,1.9
2023-01-18T10:25:59.425Z,1.8
2023-01-18T10:31:43.494Z,1.8
2023-01-18T10:36:57.780Z,2.1
2023-01-18T10:42:30.429Z,1.8
2023-01-18T10:48:24.433Z,1.9
2023-01-18T10:53:47.940Z,1.8
2023-01-18T10:59:19.697Z,1.7
2023-01-18T11:04:58.915Z,1.7
2023-01-18T11:10:34.631Z,1.7
2023-01-18T11:16:02.738Z,1.7
2023-01-18T11:21:32.712Z,1.8
2023-01-18T11:27:27.381Z,2
2023-01-18T11:32:59.698Z,2.4
2023-01-18T11:38:12.758Z,2.8
2023-01-18T11:44:07.382Z,2.7
2023-01-18T11:49:27.844Z,2.4
2023-01-18T11:54:57.672Z,2.3
2023-01-18T12:00:41.646Z,2.2
2023-01-18T12:06:22.320Z,2.1
2023-01-18T12:11:31.932Z,2
2023-01-18T12:17:23.174Z,2.1
2023-01-18T12:22:54.917Z,2.1
2023-01-18T12:28:28.205Z,2
2023-01-18T12:33:45.978Z,2.3
2023-01-18T12:39:38.554Z,2.2
2023-01-18T12:45:00.005Z,2.1
2023-01-18T12:50:36.549Z,2
2023-01-18T12:56:22.412Z,1.8
2023-01-18T13:01:51.910Z,1.9
2023-01-18T13:07:27.003Z,2
2023-01-18T13:13:07.191Z,2
2023-01-18T13:18:27.419Z,2
2023-01-18T13:24:16.088Z,2
2023-01-18T13:29:41.849Z,1.9
2023-01-18T13:35:20.346Z,1.7
2023-01-18T13:41:00.876Z,1.6
2023-01-18T13:46:12.397Z,1.6
2023-01-18T13:52:00.975Z,1.6
2023-01-18T13:57:23.870Z,1.5
2023-01-18T14:02:51.460Z,1.4
2023-01-18T14:08:26.116Z,0.8
2023-01-18T14:13:56.201Z,0.7
2023-01-18T14:19:29.977Z,0.7
2023-01-18T14:25:25.021Z,1
2023-01-18T14:30:59.672Z,1.3
2023-01-18T14:36:30.977Z,1.1
2023-01-18T14:41:48.155Z,1.2
2023-01-18T14:47:37.665Z,1.1
2023-01-18T14:53:19.636Z,1.1
2023-01-18T14:58:33.495Z,1.2
2023-01-18T15:04:22.475Z,1.2
2023-01-18T15:09:56.966Z,1.3
2023-01-18T15:15:23.667Z,1.2
2023-01-18T15:20:53.662Z,1.3
2023-01-18T15:26:36.593Z,1.3
2023-01-18T15:31:53.995Z,1.2
2023-01-18T15:37:48.367Z,1
2023-01-18T15:43:17.020Z,1
2023-01-18T15:48:51.271Z,0.9
2023-01-18T15:54:10.276Z,0.9
2023-01-18T16:00:06.260Z,0.8
2023-01-18T16:05:29.300Z,0.7
2023-01-18T16:11:11.071Z,0.7
2023-01-18T16:16:52.216Z,0.7
2023-01-18T16:22:26.112Z,0.7
2023-01-18T16:27:58.181Z,0.8
2023-01-18T16:33:20.336Z,0.8
2023-01-18T16:38:50.268Z,0.8
2023-01-18T16:44:43.121Z,0.8
2023-01-18T16:49:56.768Z,0.8
2023-01-18T16:55:28.012Z,0.7
2023-01-18T17:01:13.268Z,0.7
2023-01-18T17:06:44.196Z,0.4
2023-01-18T17:12:24.218Z,0.7
2023-01-18T17:18:05.470Z,0.6
2023-01-18T17:23:37.199Z,0.3
2023-01-18T17:29:13.553Z,0
2023-01-18T17:34:28.620Z,-0.1
2023-01-18T17:40:15.999Z,0.1
2023-01-18T17:45:58.529Z,0.3
2023-01-18T17:51:14.315Z,0
2023-01-18T17:56:49.616Z,-0.2
2023-01-18T18:02:12.828Z,0
2023-01-18T18:08:02.951Z,-0.1
2023-01-18T18:13:40.442Z,-0.2
2023-01-18T18:18:58.718Z,-0.9
2023-01-18T18:24:32.921Z,-0.6
2023-01-18T18:30:06.379Z,-0.6
2023-01-18T18:35:52.462Z,-0.3
2023-01-18T18:41:32.561Z,-0.4
2023-01-18T18:46:45.884Z,-0.4
2023-01-18T18:52:24.549Z,-0.8
2023-01-18T18:57:48.374Z,-0.9
2023-01-18T19:03:23.419Z,-0.7
2023-01-18T19:09:04.563Z,-0.5
2023-01-18T19:14:52.946Z,-0.7
2023-01-18T19:20:30.865Z,-0.5
2023-01-18T19:25:40.589Z,-0.6
2023-01-18T19:31:34.700Z,-0.4
2023-01-18T19:37:00.306Z,0
2023-01-18T19:42:41.162Z,-0.2
2023-01-18T19:48:10.529Z,-0.3
2023-01-18T19:53:41.770Z,-0.3
2023-01-18T19:58:56.395Z,-0.3
2023-01-18T20:04:40.482Z,-0.3
2023-01-18T20:10:05.295Z,-0.3
2023-01-18T20:15:38.970Z,-0.4
2023-01-18T20:21:27.771Z,-0.5
2023-01-18T20:26:59.637Z,-0.7
2023-01-18T20:32:41.328Z,-0.3
2023-01-18T20:37:59.841Z,-0.6
2023-01-18T20:43:27.008Z,-0.9
2023-01-18T20:49:33.116Z,-1.2
2023-01-18T20:54:47.930Z,-1.3
2023-01-18T21:00:20.236Z,-1.1
2023-01-18T21:05:59.374Z,-0.8
2023-01-18T21:11:15.699Z,-1.1
2023-01-18T21:17:05.208Z,-1.2
2023-01-18T21:22:27.988Z,-1.1
2023-01-18T21:28:01.461Z,-1.2
2023-01-18T21:33:34.076Z,-1.1
2023-01-18T21:39:16.564Z,-1.3
2023-01-18T21:44:42.601Z,-1.3
2023-01-18T21:50:21.003Z,-1.4
2023-01-18T21:56:01.858Z,-1.8
2023-01-18T22:01:34.009Z,-1.8
2023-01-18T22:06:41.056Z,-1.9
2023-01-18T22:12:30.220Z,-1.4
2023-01-18T22:18:07.733Z,-1.2
2023-01-18T22:23:34.530Z,-1.4
2023-01-18T22:28:58.983Z,-1.7
2023-01-18T22:34:50.476Z,-1.9
2023-01-18T22:40:06.979Z,-2
2023-01-18T22:45:34.017Z,-1.9
2023-01-18T22:51:16.929Z,-1.9
2023-01-18T22:56:50.618Z,-2.1
2023-01-18T23:02:16.566Z,-2.1
2023-01-18T23:08:06.694Z,-2.2
2023-01-18T23:13:15.985Z,-2.2
2023-01-18T23:19:02.071Z,-2.5
2023-01-18T23:24:34.063Z,-2.7
2023-01-18T23:30:02.023Z,-2.7
2023-01-18T23:35:39.403Z,-2.6
2023-01-18T23:41:13.500Z,-2.8
2023-01-18T23:46:48.356Z,-2.4
2023-01-18T23:52:11.644Z,-2.4
2023-01-18T23:57:53.473Z,-2.7
